Blossom 10 Miler

Back to 2014 Road Races

2014 Road Race #6

2014-05-11, Naramata, 16.0 km
# Name City Age GP CP Time Pace
1 Jeff Vogt Kelowna M35-39 0:57:58 03:37
2 Ryan Pidhirniak Kamloops M20-29 0:59:12 03:42
3 Rory Switzer Kelowna M50-54 0:59:59 03:44
4 Tim Hurley Kelowna M20-29 4 1:00:26 03:46
5 Sergio Pio Penticton M45-49 5 1:00:41 03:47
6 Josh Heinrich Penticton M30-34 6 1:01:15 03:49
7 Timothy Musselman Bell Penticton M35-39 7 1:01:31 03:50
8 Paul Willinsky Kelowna M35-39 8 1:02:04 03:52
9 Richard Dueck Kelowna M45-49 9 1:02:51 03:55
10 Jon Williams West Kelowna M40-44 10 1:03:11 03:56
11 Luis David Haro Keremeos M35-39 11 4 1:03:39 03:58
12 Ken Byl Kelowna M50-54 12 1:04:10 04:00
13 Nolan Graham Troy M35-39 13 5 1:04:16 04:01
14 Jeremy Hopwood Richmond M30-34 14 1:05:29 04:05
15 Randy Goncalves Kelowna M40-44 15 1:05:46 04:06
16 Cindy Rhodes Kelowna F55-59 1:07:51 04:14
17 Kirk Vandeweghe Penticton M50-54 16 1:07:54 04:14
18 Yvonne Timewell Kamloops F45-49 1:08:00 04:15
19 Joe Wessel Kelowna M35-39 17 6 1:08:19 04:16
20 Marie-Josee Bedard Merritt F40-44 1:08:27 04:16
21 Delilah Topic Kelowna F35-39 4 1:08:31 04:16
22 Jen Annett Penticton F20-29 5 1:08:56 04:18
23 Roly Muller Kelowna M60-64 18 1:09:08 04:19
24 John Wilson Vernon M35-39 19 7 1:10:01 04:22
25 Quinten Van Horlick Penticton M35-39 20 8 1:10:19 04:23
26 Doug Howard Naramata M50-54 21 4 1:10:29 04:24
27 Kiah Wheeler Naramata F16-19 6 1:10:45 04:25
28 Trevor Lewthwaite Oliver M40-44 22 1:10:47 04:25
29 Aidan Higgins Vancouver M30-34 23 1:11:44 04:29
30 Rick Jenkner Kamloops M55-59 24 1:11:55 04:29
31 Brian Rourke Kelowna M65-69 25 1:11:57 04:29
32 Barb Cutjar Penticton F45-49 7 1:12:15 04:30
33 Amanda Kontkanen Penticton F40-44 8 1:12:33 04:32
34 Kevin Wilson Penticton M40-44 26 4 1:13:34 04:35
35 Kylee Yadlowski Naramata F30-34 9 1:14:05 04:37
36 Michelle Heneghan Vancouver F20-29 10 1:14:24 04:39
37 Aidan Lightfoot Kelowna M35-39 27 9 1:14:39 04:39
38 Donna Sawchyn Penticton F50-54 11 1:14:55 04:40
39 Bill Faulkner Kaleden M65-69 28 1:15:28 04:43
40 Ingrid Musselman Bell Penticton F35-39 12 1:15:39 04:43
41 Matt Holmes Penticton M35-39 29 10 1:16:22 04:46
42 Tammy Howe Kelowna F40-44 13 1:16:26 04:46
43 Janis Neufeld Nakusp F40-44 14 4 1:16:31 04:46
44 Mike Braid Summerland M60-64 30 1:16:54 04:48
45 Peter Pollhammer Kelowna M70-74 31 1:18:02 04:52
46 Peter Benson Naramata M70-74 32 1:18:33 04:54
47 Lynda Proce Coldstream F55-59 15 1:18:59 04:56
48 Frank Wolfinger Penticton M55-59 33 1:19:04 04:56
49 Gloria Woolner Penticton F50-54 16 1:19:11 04:56
50 Fraser Stewart Kamloops M60-64 34 1:19:41 04:58
51 Laurie Wheeler Naramata F45-49 17 1:19:42 04:58
52 Shanda Hill Vernon F30-34 18 1:20:01 05:00
53 Cathy Brown Coldstream F40-44 19 5 1:20:06 05:00
54 Melanie Boskill Kelowna F30-34 20 1:20:47 05:02
55 Rick Jansen Kelowna M20-29 35 1:20:57 05:03
56 Teddy Boyko Kelowna M65-69 36 1:21:11 05:04
57 Phillip Macdonald Okanagan Falls M60-64 37 4 1:21:13 05:04
58 Aj Overby West Kelowna M16-19 38 1:21:34 05:05
59 Robin Levant Oliver F40-44 21 6 1:21:35 05:05
60 Chris Greenway Kelowna M60-64 39 5 1:21:52 05:07
61 Jason Annett Penticton M30-34 40 4 1:22:27 05:09
62 Kent Matthies Okanagan Falls M50-54 41 5 1:22:28 05:09
63 Melvin Doherty Kamloops M65-69 42 4 1:22:40 05:10
64 Sunette Louw Naramata F40-44 22 7 1:22:46 05:10
65 Kendall Cowley Kelowna F20-29 23 1:22:53 05:10
66 Stephen Joyce Coldstream M50-54 43 6 1:22:56 05:11
67 Linda Downey Naramata F50-54 24 1:23:04 05:11
68 Chuck Abney Kelowna M55-59 44 1:23:25 05:12
69 Lisa Mccrea Kelowna F30-34 25 4 1:23:35 05:13
70 Aaron Walker Kelowna M45-49 45 1:23:40 05:13
71 Diane Leonard Kelowna F65-69 26 1:23:43 05:13
72 Laurie Hudson Penticton F50-54 27 4 1:23:49 05:14
73 Susan Templin Kelowna F60-64 28 1:24:12 05:15
74 Michelle Sinclair Kelowna F40-44 29 8 1:24:32 05:17
75 Nancy Heimbecker Port Moody F45-49 30 4 1:25:10 05:19
76 Ed Marbach Penticton M50-54 46 7 1:25:28 05:20
77 Patrick Amundsen Summerland M60-64 47 6 1:25:36 05:21
78 Deborah Chadwick Summerland F50-54 31 5 1:25:41 05:21
79 Monique Porter Summerland F35-39 32 1:25:50 05:21
80 Janice Bradshaw West Kelowna F50-54 33 6 1:25:56 05:22
81 Leah Mottershead Penticton F45-49 34 5 1:26:00 05:22
82 David Ellis Penticton M65-69 48 5 1:26:05 05:22
83 Angela Ivany Kelowna F30-34 35 5 1:26:06 05:22
84 Helen Rapin Penticton F45-49 36 6 1:26:31 05:24
85 Maureen Corvari Penticton F45-49 37 7 1:26:52 05:25
86 Tammie Watson Kelowna F40-44 38 9 1:26:54 05:25
87 Robyn Nichol Osoyoos F30-34 39 6 1:27:03 05:26
88 Charlie Llewellyn Penticton F55-59 40 1:27:09 05:26
89 Joanna Ball West Kelowna F30-34 41 7 1:27:10 05:26
90 Sonja Feddes Penticton F20-29 42 4 1:27:42 05:28
91 Robert Johnston Burnaby M45-49 49 4 1:28:08 05:30
92 Liz Borrett Kelowna F75-79 43 1:28:11 05:30
93 Laura Klaponski Nakusp F20-29 44 5 1:28:33 05:32
94 Leslie Park Peachland F50-54 45 7 1:28:37 05:32
95 Rick May Kelowna M55-59 50 4 1:28:38 05:32
96 Kelly Waterfield Nakusp F50-54 46 8 1:28:52 05:33
97 Katie Hicks Penticton F60-64 47 1:29:04 05:34
98 Wendy Hyer Penticton F55-59 48 4 1:29:44 05:36
99 Guenter Naumann Okanagan Falls M80-99+ 51 1:29:53 05:37
100 Ralf Aggarwal Penticton M40-44 52 5 1:30:45 05:40
101 Becky Williams Winfield F55-59 49 5 1:30:46 05:40
102 Janette Davies Naramata F45-49 50 8 1:30:53 05:40
103 Andy Severson Kamloops M20-29 53 4 1:31:00 05:41
104 Stuart Johnston Oliver M60-64 54 7 1:31:08 05:41
105 Marianne Willis Oliver F55-59 51 6 1:31:08 05:41
106 Tera Lund Penticton F40-44 52 10 1:32:02 05:45
107 Lydia Miller Penticton F65-69 53 1:32:07 05:45
108 Astrid Varga Kelowna F60-64 54 1:32:20 05:46
109 Jennifer Watt Kelowna F45-49 55 9 1:32:39 05:47
110 Sarah Porcellato Penticton F35-39 56 4 1:32:47 05:47
111 Lianna Lam Penticton F20-29 57 6 1:33:03 05:48
112 Amanda Vandeweghe Penticton F50-54 58 9 1:33:05 05:49
113 Louis Stupar Kelowna M65-69 55 6 1:33:14 05:49
114 Amanda Morazain Lake Country F35-39 59 5 1:33:28 05:50
115 Geraldine Parent Burnaby F50-54 60 10 1:34:36 05:54
116 Jocelynn Rooke North Vancouver F35-39 61 6 1:34:45 05:55
117 Arnie Gash Okanagan Falls F65-69 62 1:35:16 05:57
118 Tara Graham Kelowna F35-39 63 7 1:36:17 06:01
119 Jim Cronin Kelowna M60-64 56 8 1:36:18 06:01
120 Mel Steinback Warldaw F20-29 64 7 1:36:42 06:02
121 Jacqui Ward Penticton F40-44 65 11 1:36:45 06:02
122 Theresa Pauli West Kelowna F20-29 66 8 1:36:47 06:02
123 Charlotte Heidt Kelowna F60-64 67 4 1:38:18 06:08
124 Garry Bell Kelowna M70-74 57 1:38:27 06:09
125 Anne Hales Vancouver F45-49 68 10 1:39:05 06:11
126 Barry Poole Burnaby M65-69 58 7 1:39:36 06:13
127 Sandra Wike Kelowna F60-64 69 5 1:39:42 06:13
128 Danette Zamluk Westbank F40-44 70 12 1:39:45 06:14
129 Marcia Mendes West Kelowna F50-54 71 11 1:39:45 06:14
130 Patti Sader West Kelowna F50-54 72 11 1:39:45 06:14
131 Al Smith Osoyoos M65-69 59 8 1:40:16 06:16
132 Kim Finlayson Penticton F40-44 73 13 1:40:33 06:17
133 Rory Bass Kelowna M45-49 60 5 1:41:47 06:21
134 Tom Reed Penticton M70-74 61 4 1:42:20 06:23
135 Yvonne Moritz Peachland F50-54 74 13 1:42:28 06:24
136 Christy Ransom Peachland F45-49 75 11 1:43:31 06:28
137 Barb Robertson West Kelowna F55-59 76 7 1:43:41 06:28
138 Kirsty Kraft West Kelowna F45-49 77 12 1:43:41 06:28
139 Angie Vriends Penticton F20-29 78 9 1:45:13 06:34
140 Nancy Danenhower Summerland F50-54 79 14 1:45:23 06:35
141 Roland Laplante Penticton M65-69 62 9 1:45:48 06:36
142 Markus Heinrichs Kelowna M50-54 63 8 1:47:30 06:43
143 Claire Parker Vernon F55-59 80 8 1:47:39 06:43
144 Karen Willies Kamloops F70-74 81 1:49:59 06:52
145 Joy Peterson Penticton F45-49 82 13 1:50:44 06:55
146 Linda Woodbury Kamloops F65-69 83 4 1:52:44 07:02
147 Amy Falke West Kelowna F40-44 84 14 1:53:58 07:07
148 Naomi Neukom West Kelowna F40-44 85 14 1:53:58 07:07
149 Kathryne Flannery Kamloops F55-59 86 9 2:16:20 08:31
Missing or Incorrect Results